createdAt,value
2017-05-29T13:59:22.091Z,47072
2017-05-29T14:00:12.326Z,39328
2017-05-29T14:01:02.059Z,49280
2017-05-29T14:01:43.879Z,46880
2017-05-29T14:02:31.528Z,51104
2017-05-29T14:03:19.472Z,90144
2017-05-29T14:04:07.872Z,105312
2017-05-29T14:04:52.808Z,90272
2017-05-29T14:05:41.317Z,99328
2017-05-29T14:06:29.524Z,99488
2017-05-29T14:07:12.615Z,105056
2017-05-29T14:07:54.484Z,110112
2017-05-29T14:08:36.522Z,103520
2017-05-29T14:09:17.509Z,100800
2017-05-29T14:09:58.033Z,111104
2017-05-29T14:10:38.527Z,59008
2017-05-29T14:11:19.034Z,104256
2017-05-29T14:11:59.525Z,98112
2017-05-29T14:12:40.042Z,91648
2017-05-29T14:13:20.518Z,76832
2017-05-29T14:14:01.011Z,85056
2017-05-29T14:14:41.529Z,54944
2017-05-29T14:15:22.062Z,52288
2017-05-29T14:16:02.543Z,53664
2017-05-29T14:16:43.054Z,42976
2017-05-29T14:17:23.548Z,32896
2017-05-29T14:18:04.047Z,26880
2017-05-29T14:18:44.570Z,24992
2017-05-29T14:19:25.072Z,24288
2017-05-29T14:20:05.560Z,23456
2017-05-29T14:20:46.328Z,23104
2017-05-29T14:21:27.104Z,23616
2017-05-29T14:22:07.914Z,23264
2017-05-29T14:22:48.762Z,24416
2017-05-29T14:23:29.639Z,25408
2017-05-29T14:24:10.464Z,29120
2017-05-29T14:24:51.342Z,32864
2017-05-29T14:25:32.153Z,35616
2017-05-29T14:26:12.995Z,31136
2017-05-29T14:26:53.773Z,27616
2017-05-29T14:27:34.492Z,27936
2017-05-29T14:28:14.997Z,28032
2017-05-29T14:28:55.498Z,26880
2017-05-29T14:29:36.001Z,30144
2017-05-29T14:30:16.491Z,36192
2017-05-29T14:30:56.980Z,40992
2017-05-29T14:31:37.524Z,46272
2017-05-29T14:32:18.003Z,51968
2017-05-29T14:32:58.510Z,53056
2017-05-29T14:33:39.018Z,42560
2017-05-29T14:34:19.524Z,38176
2017-05-29T14:35:00.012Z,31360
2017-05-29T14:35:40.499Z,29920
2017-05-29T14:36:21.011Z,35360
2017-05-29T14:37:01.522Z,51008
2017-05-29T14:37:41.997Z,48032
2017-05-29T14:38:22.484Z,36416
2017-05-29T14:39:02.988Z,27840
2017-05-29T14:39:43.479Z,22912
2017-05-29T14:40:23.965Z,19360
2017-05-29T14:41:04.479Z,17952
2017-05-29T14:41:44.985Z,18272
2017-05-29T14:42:25.478Z,20000
2017-05-29T14:43:05.972Z,22944
2017-05-29T14:43:46.468Z,33408
2017-05-29T14:44:26.974Z,45984
2017-05-29T14:45:07.500Z,51360
2017-05-29T14:45:48.077Z,57568
2017-05-29T14:46:28.734Z,77888
2017-05-29T14:47:09.197Z,44000
2017-05-29T14:47:49.742Z,48832
2017-05-29T14:48:30.223Z,22176
2017-05-29T14:49:10.721Z,17004
2017-05-29T14:49:51.242Z,14736
2017-05-29T14:50:31.718Z,14028
2017-05-29T14:51:12.239Z,14196
2017-05-29T14:51:52.728Z,12828
2017-05-29T14:52:33.221Z,10396
2017-05-29T14:53:21.216Z,9172
2017-05-29T14:54:00.303Z,9316
2017-05-29T14:54:40.852Z,8832
2017-05-29T14:55:21.367Z,7628
2017-05-29T14:56:01.803Z,6912
2017-05-29T14:56:42.351Z,6516
2017-05-29T14:57:22.895Z,6416
2017-05-29T14:58:03.408Z,7052
2017-05-29T14:58:43.927Z,7820
2017-05-29T14:59:24.410Z,8912
2017-05-29T15:00:04.948Z,9332
2017-05-29T15:00:45.464Z,8904
2017-05-29T15:01:25.950Z,7516
2017-05-29T15:02:06.503Z,6344
2017-05-29T15:02:47.145Z,5820
2017-05-29T15:03:27.620Z,6064
2017-05-29T15:04:08.115Z,6500
2017-05-29T15:04:48.597Z,6968
2017-05-29T15:05:29.102Z,7324
2017-05-29T15:06:09.631Z,7376
2017-05-29T15:06:50.350Z,6936
2017-05-29T15:07:30.807Z,6068
2017-05-29T15:08:11.337Z,5224
2017-05-29T15:08:51.826Z,4844
2017-05-29T15:09:32.356Z,4780
2017-05-29T15:10:12.829Z,5000
2017-05-29T15:10:53.289Z,5056
2017-05-29T15:11:33.825Z,5164
2017-05-29T15:12:14.320Z,5344
2017-05-29T15:12:54.813Z,5552
2017-05-29T15:13:35.329Z,5716
2017-05-29T15:14:15.794Z,5656
2017-05-29T15:14:56.310Z,5616
2017-05-29T15:15:36.783Z,5980
2017-05-29T15:16:17.348Z,6552
2017-05-29T15:16:57.841Z,7008
2017-05-29T15:17:38.352Z,7048
2017-05-29T15:18:18.831Z,7224
2017-05-29T15:18:59.355Z,7116
2017-05-29T15:19:39.849Z,6908
2017-05-29T15:20:20.345Z,6584
2017-05-29T15:21:00.849Z,6112
2017-05-29T15:21:41.411Z,5696
2017-05-29T15:22:21.894Z,5140
2017-05-29T15:23:06.233Z,4712
2017-05-29T15:23:46.708Z,4252
2017-05-29T15:24:27.202Z,3884
2017-05-29T15:25:07.709Z,3920
2017-05-29T15:25:48.207Z,4060
2017-05-29T15:26:28.673Z,4344
2017-05-29T15:27:09.202Z,4740
2017-05-29T15:27:49.682Z,5104
2017-05-29T15:28:30.198Z,5548
2017-05-29T15:29:10.684Z,6064
2017-05-29T15:29:51.192Z,6552
2017-05-29T15:30:31.688Z,6892
2017-05-29T15:31:12.184Z,7220
2017-05-29T15:31:52.909Z,7788
2017-05-29T15:32:33.345Z,8440
2017-05-29T15:33:13.789Z,9044
2017-05-29T15:33:54.290Z,9508
2017-05-29T15:34:34.781Z,9836
2017-05-29T15:35:15.298Z,10084
2017-05-29T15:35:55.852Z,10116
2017-05-29T15:36:36.418Z,10180
2017-05-29T15:37:16.852Z,10280
2017-05-29T15:37:57.377Z,9396
2017-05-29T15:38:37.840Z,8352
2017-05-29T15:39:18.305Z,6948
2017-05-29T15:39:58.807Z,6256
2017-05-29T15:40:39.321Z,6028
2017-05-29T15:41:19.850Z,6100
2017-05-29T15:42:00.366Z,6376
2017-05-29T15:42:40.898Z,7048
2017-05-29T15:43:21.353Z,7988
2017-05-29T15:44:01.813Z,8956
2017-05-29T15:44:42.308Z,9916
2017-05-29T15:45:22.814Z,10456
2017-05-29T15:46:03.281Z,10992
2017-05-29T15:46:43.788Z,11576
2017-05-29T15:47:24.282Z,11728
2017-05-29T15:48:04.790Z,11160
2017-05-29T15:48:45.748Z,10456
2017-05-29T15:49:26.012Z,9664
2017-05-29T15:50:06.524Z,9044
2017-05-29T15:50:47.008Z,8620
2017-05-29T15:51:27.609Z,8484
2017-05-29T15:52:08.026Z,8096
2017-05-29T15:52:48.492Z,7408
2017-05-29T15:53:28.994Z,6964
2017-05-29T15:54:09.530Z,7100
2017-05-29T15:54:50.028Z,7608
2017-05-29T15:55:30.529Z,9056
2017-05-29T15:56:11.015Z,11092
2017-05-29T15:56:51.518Z,14812
2017-05-29T15:57:32.045Z,17856
2017-05-29T15:58:12.522Z,17856
2017-05-29T15:58:53.779Z,17760
2017-05-29T15:59:34.254Z,17856
2017-05-29T16:00:14.764Z,17664
2017-05-29T16:00:55.244Z,15792
2017-05-29T16:01:35.710Z,13404
2017-05-29T16:02:16.223Z,11460
2017-05-29T16:02:56.711Z,9936
2017-05-29T16:03:37.180Z,8832
2017-05-29T16:04:17.698Z,8188
2017-05-29T16:04:58.187Z,7472
2017-05-29T16:05:38.665Z,7316
2017-05-29T16:06:19.145Z,7360
2017-05-29T16:06:59.648Z,6524
2017-05-29T16:07:40.162Z,5612
2017-05-29T16:08:20.642Z,4800
2017-05-29T16:09:01.112Z,4208
2017-05-29T16:09:41.633Z,3648
2017-05-29T16:10:22.141Z,3292
2017-05-29T16:11:02.647Z,3136
2017-05-29T16:11:43.145Z,2912
2017-05-29T16:12:23.626Z,2704
2017-05-29T16:13:04.110Z,2600
2017-05-29T16:13:44.590Z,2376
2017-05-29T16:14:25.097Z,2212
2017-05-29T16:15:05.612Z,2084
2017-05-29T16:15:46.099Z,1996
2017-05-29T16:16:26.606Z,1952
2017-05-29T16:17:07.111Z,1976
2017-05-29T16:17:47.574Z,2048
2017-05-29T16:18:28.081Z,2096
2017-05-29T16:19:08.562Z,2192
2017-05-29T16:19:49.055Z,2368
2017-05-29T16:20:29.551Z,2688
2017-05-29T16:21:10.040Z,3116
2017-05-29T16:21:50.523Z,3672
2017-05-29T16:22:31.038Z,4300
2017-05-29T16:23:11.522Z,4944
2017-05-29T16:23:52.008Z,5720
2017-05-29T16:24:32.511Z,6516
2017-05-29T16:25:13.024Z,7384
2017-05-29T16:25:53.520Z,8488
2017-05-29T16:26:33.996Z,9384
2017-05-29T16:27:14.520Z,10360
2017-05-29T16:27:54.981Z,11508
2017-05-29T16:28:35.462Z,12148
2017-05-29T16:29:15.961Z,12232
2017-05-29T16:29:56.475Z,11968
2017-05-29T16:30:36.910Z,12016
2017-05-29T16:31:17.403Z,12016
2017-05-29T16:31:57.895Z,12112
2017-05-29T16:32:38.370Z,12220
2017-05-29T16:33:18.858Z,12068
2017-05-29T16:33:59.352Z,11296
2017-05-29T16:34:39.861Z,10076
2017-05-29T16:35:20.340Z,8640
2017-05-29T16:36:00.813Z,7672
2017-05-29T16:36:41.297Z,7268
2017-05-29T16:37:21.788Z,7828
2017-05-29T16:38:02.287Z,8804
2017-05-29T16:38:42.759Z,9564
2017-05-29T16:39:23.273Z,10544
2017-05-29T16:40:03.758Z,11016
2017-05-29T16:40:44.264Z,11168
2017-05-29T16:41:24.734Z,11312
2017-05-29T16:42:05.203Z,11712
2017-05-29T16:42:45.710Z,12500
2017-05-29T16:43:26.189Z,13284
2017-05-29T16:44:06.693Z,13316
2017-05-29T16:44:47.187Z,13116
2017-05-29T16:45:27.730Z,12680
2017-05-29T16:46:08.197Z,12144
2017-05-29T16:46:48.699Z,11796
2017-05-29T16:47:29.162Z,11696
2017-05-29T16:48:09.664Z,11608
2017-05-29T16:48:50.165Z,11372
2017-05-29T16:49:30.674Z,10960
2017-05-29T16:50:11.118Z,10476
2017-05-29T16:50:51.612Z,10028
2017-05-29T16:51:32.093Z,9696
2017-05-29T16:52:12.648Z,9504
2017-05-29T16:52:53.088Z,9444
2017-05-29T16:53:33.608Z,9528
2017-05-29T16:54:14.082Z,9548
2017-05-29T16:54:54.614Z,9624
2017-05-29T16:55:35.080Z,9672
2017-05-29T16:56:15.595Z,9520
2017-05-29T16:56:56.086Z,9096
2017-05-29T16:57:36.598Z,8552
2017-05-29T16:58:17.085Z,7948
2017-05-29T16:58:57.591Z,7372
2017-05-29T16:59:38.078Z,7036
2017-05-29T17:00:18.580Z,6740
2017-05-29T17:00:59.065Z,6616
2017-05-29T17:01:39.571Z,6616
2017-05-29T17:02:20.056Z,6820
2017-05-29T17:03:00.606Z,7152
2017-05-29T17:03:41.066Z,7700
2017-05-29T17:04:21.607Z,8268
2017-05-29T17:05:02.136Z,8644
2017-05-29T17:05:42.620Z,9196
2017-05-29T17:06:23.139Z,9708
2017-05-29T17:07:03.712Z,9716
2017-05-29T17:07:44.231Z,9392
2017-05-29T17:08:24.715Z,9068
2017-05-29T17:09:05.217Z,8884
2017-05-29T17:09:45.730Z,8804
2017-05-29T17:10:26.287Z,8404
2017-05-29T17:11:06.728Z,8468
2017-05-29T17:11:47.221Z,8604
2017-05-29T17:12:27.702Z,8644
2017-05-29T17:13:08.235Z,8816
2017-05-29T17:13:48.724Z,8796
2017-05-29T17:14:29.229Z,8744
2017-05-29T17:15:09.707Z,9028
2017-05-29T17:15:50.204Z,8964
2017-05-29T17:16:30.729Z,9232
2017-05-29T17:17:11.181Z,8712
2017-05-29T17:17:51.654Z,8912
2017-05-29T17:18:32.163Z,8736
2017-05-29T17:19:12.680Z,8692
2017-05-29T17:19:53.222Z,13324
2017-05-29T17:20:33.687Z,9436
2017-05-29T17:21:14.225Z,9984
2017-05-29T17:21:54.734Z,11280
2017-05-29T17:22:35.201Z,12436
2017-05-29T17:23:15.789Z,11060
2017-05-29T17:23:56.274Z,11196
2017-05-29T17:24:36.788Z,11260
2017-05-29T17:25:17.388Z,11340
2017-05-29T17:25:57.817Z,11464
2017-05-29T17:26:38.323Z,10908
2017-05-29T17:27:18.811Z,11476
2017-05-29T17:27:59.334Z,10012
2017-05-29T17:28:39.820Z,9452
2017-05-29T17:29:20.300Z,9612
2017-05-29T17:30:00.774Z,9932
2017-05-29T17:30:41.262Z,10244
2017-05-29T17:31:21.757Z,9728
2017-05-29T17:32:02.223Z,9748
2017-05-29T17:32:42.721Z,10700
2017-05-29T17:33:23.206Z,11324
2017-05-29T17:34:03.710Z,12380
2017-05-29T17:34:44.210Z,12616
2017-05-29T17:35:24.674Z,12156
2017-05-29T17:36:05.173Z,12156
2017-05-29T17:36:45.676Z,12124
2017-05-29T17:37:26.154Z,12100
2017-05-29T17:38:06.649Z,11800
2017-05-29T17:38:47.151Z,11804
2017-05-29T17:39:27.770Z,11712
2017-05-29T17:40:08.234Z,11652
2017-05-29T17:40:48.743Z,11180
2017-05-29T17:41:29.265Z,10240
2017-05-29T17:42:09.772Z,9148
2017-05-29T17:42:50.265Z,8304
2017-05-29T17:43:30.761Z,7872
2017-05-29T17:44:11.237Z,7944
2017-05-29T17:44:51.703Z,7964
2017-05-29T17:45:32.267Z,8088
2017-05-29T17:46:12.704Z,8032
2017-05-29T17:46:53.215Z,7884
2017-05-29T17:47:33.726Z,7980
2017-05-29T17:48:15.319Z,8088
2017-05-29T17:48:55.816Z,8028
2017-05-29T17:49:36.336Z,7804
2017-05-29T17:50:16.810Z,7352
2017-05-29T17:50:57.324Z,6888
2017-05-29T17:51:37.811Z,6572
2017-05-29T17:52:18.306Z,6456
2017-05-29T17:52:58.800Z,6600
2017-05-29T17:53:39.287Z,6596
2017-05-29T17:54:19.785Z,6804
2017-05-29T17:55:00.280Z,7224
2017-05-29T17:55:40.774Z,7612
2017-05-29T17:56:21.266Z,7756
2017-05-29T17:57:01.777Z,7500
2017-05-29T17:57:44.143Z,6968
2017-05-29T17:58:24.611Z,6472
2017-05-29T17:59:05.097Z,5936
2017-05-29T17:59:45.589Z,5432
2017-05-29T18:00:26.085Z,4992
2017-05-29T18:01:06.628Z,4612
2017-05-29T18:01:47.081Z,4312
2017-05-29T18:02:27.564Z,4064
2017-05-29T18:03:08.024Z,3844
2017-05-29T18:03:48.554Z,3688
2017-05-29T18:04:29.050Z,3568
2017-05-29T18:05:09.566Z,3512
2017-05-29T18:05:50.072Z,3516
2017-05-29T18:06:30.570Z,3544
2017-05-29T18:07:11.050Z,3512
2017-05-29T18:07:51.529Z,3456
2017-05-29T18:08:32.024Z,3412
2017-05-29T18:09:12.518Z,3392
2017-05-29T18:09:53.022Z,3396
2017-05-29T18:10:33.526Z,3336
2017-05-29T18:11:14.011Z,3272
2017-05-29T18:11:54.523Z,3252
2017-05-29T18:12:34.999Z,3328
2017-05-29T18:13:15.510Z,3416
2017-05-29T18:13:55.991Z,3536
2017-05-29T18:14:36.492Z,3524
2017-05-29T18:15:16.980Z,3436
2017-05-29T18:15:57.483Z,3432
2017-05-29T18:16:37.959Z,3428
2017-05-29T18:17:18.454Z,3476
2017-05-29T18:17:58.935Z,3480
2017-05-29T18:18:40.449Z,3364
2017-05-29T18:19:20.927Z,3208
2017-05-29T18:20:01.440Z,3092
2017-05-29T18:20:41.965Z,3028
2017-05-29T18:21:22.466Z,2988
2017-05-29T18:22:02.969Z,2936
2017-05-29T18:22:43.472Z,2916
2017-05-29T18:23:23.961Z,2968
2017-05-29T18:24:04.423Z,3052
2017-05-29T18:24:44.905Z,3136
2017-05-29T18:25:25.386Z,3180
2017-05-29T18:26:05.873Z,3144
2017-05-29T18:26:46.398Z,3072
2017-05-29T18:27:26.895Z,2976
2017-05-29T18:28:07.367Z,2892
2017-05-29T18:28:47.917Z,2820
2017-05-29T18:29:28.406Z,2784
2017-05-29T18:30:08.888Z,2792
2017-05-29T18:30:49.396Z,2840
2017-05-29T18:31:29.888Z,2896
2017-05-29T18:32:10.391Z,2940
2017-05-29T18:32:50.863Z,2936
2017-05-29T18:33:31.349Z,2904
2017-05-29T18:34:11.867Z,2856
2017-05-29T18:34:52.348Z,2804
2017-05-29T18:35:32.911Z,2764
2017-05-29T18:36:13.395Z,2712
2017-05-29T18:36:53.909Z,2624
2017-05-29T18:37:34.406Z,2488
2017-05-29T18:38:14.947Z,2340
2017-05-29T18:38:55.452Z,2224
2017-05-29T18:39:35.946Z,2176
2017-05-29T18:40:16.428Z,2152
2017-05-29T18:40:56.959Z,2092
2017-05-29T18:41:37.438Z,2028
2017-05-29T18:42:17.934Z,1952
2017-05-29T18:42:58.416Z,1892
2017-05-29T18:43:38.891Z,1884
2017-05-29T18:44:19.418Z,1880
2017-05-29T18:44:59.903Z,1860
2017-05-29T18:45:40.401Z,1852
2017-05-29T18:46:20.871Z,1872
2017-05-29T18:47:01.389Z,1916
2017-05-29T18:47:41.879Z,1964
2017-05-29T18:48:22.382Z,2028
2017-05-29T18:49:02.874Z,2100
2017-05-29T18:49:43.369Z,2208
2017-05-29T18:50:23.868Z,2328
2017-05-29T18:51:04.370Z,2456
2017-05-29T18:51:44.856Z,2628
2017-05-29T18:52:25.364Z,2792
2017-05-29T18:53:05.850Z,2940
2017-05-29T18:53:46.365Z,3040
2017-05-29T18:54:26.867Z,3088
2017-05-29T18:55:07.368Z,3088
2017-05-29T18:55:47.921Z,3040
2017-05-29T18:56:28.373Z,2964
2017-05-29T18:57:08.848Z,2852
2017-05-29T18:57:49.363Z,2704
2017-05-29T18:58:29.843Z,2556
2017-05-29T18:59:10.331Z,2388
2017-05-29T18:59:50.824Z,2220
2017-05-29T19:00:31.334Z,2072
2017-05-29T19:01:11.848Z,1944
2017-05-29T19:01:52.360Z,1812
2017-05-29T19:02:32.844Z,1668
2017-05-29T19:03:13.343Z,1540
2017-05-29T19:03:53.823Z,1464
2017-05-29T19:04:34.337Z,1424
2017-05-29T19:05:14.816Z,1428
2017-05-29T19:05:55.326Z,1440
2017-05-29T19:06:35.805Z,1444
2017-05-29T19:07:16.296Z,1420
2017-05-29T19:07:56.811Z,1424
2017-05-29T19:08:37.273Z,1444
2017-05-29T19:09:17.809Z,1472
2017-05-29T19:09:58.281Z,1484
2017-05-29T19:10:38.792Z,1472
2017-05-29T19:11:19.271Z,1436
2017-05-29T19:11:59.765Z,1380
2017-05-29T19:12:40.280Z,1332
2017-05-29T19:13:20.781Z,1280
2017-05-29T19:14:01.254Z,1220
2017-05-29T19:14:41.771Z,1156
2017-05-29T19:15:22.291Z,1092
2017-05-29T19:16:02.750Z,1012
2017-05-29T19:16:43.242Z,932
2017-05-29T19:17:23.752Z,868
2017-05-29T19:18:04.225Z,820
2017-05-29T19:18:44.744Z,776
2017-05-29T19:19:25.220Z,748
2017-05-29T19:20:05.755Z,720
2017-05-29T19:20:46.265Z,696
2017-05-29T19:21:26.792Z,672
2017-05-29T19:22:07.258Z,644
2017-05-29T19:22:47.759Z,604
2017-05-29T19:23:28.260Z,576
2017-05-29T19:24:08.818Z,556
2017-05-29T19:24:49.329Z,532
2017-05-29T19:25:29.839Z,508
2017-05-29T19:26:10.274Z,484
2017-05-29T19:26:50.769Z,476
2017-05-29T19:27:31.253Z,464
2017-05-29T19:28:11.771Z,456
2017-05-29T19:28:52.265Z,448
2017-05-29T19:29:32.759Z,444
2017-05-29T19:30:13.290Z,440
2017-05-29T19:30:53.801Z,432
2017-05-29T19:31:34.295Z,416
2017-05-29T19:32:14.773Z,400
2017-05-29T19:32:55.311Z,384
2017-05-29T19:33:35.797Z,368
2017-05-29T19:34:16.304Z,348
2017-05-29T19:34:56.796Z,332
2017-05-29T19:35:37.294Z,316
2017-05-29T19:36:17.753Z,292
2017-05-29T19:36:58.260Z,276
2017-05-29T19:37:38.783Z,252
2017-05-29T19:38:19.275Z,236
2017-05-29T19:38:59.788Z,220
2017-05-29T19:39:40.272Z,204
2017-05-29T19:40:20.773Z,192
2017-05-29T19:41:01.287Z,184
2017-05-29T19:41:41.760Z,180
2017-05-29T19:42:22.238Z,168
2017-05-29T19:43:02.747Z,160
2017-05-29T19:43:43.247Z,152
2017-05-29T19:44:23.774Z,148
2017-05-29T19:45:04.249Z,140
2017-05-29T19:45:44.748Z,136
2017-05-29T19:46:25.254Z,132
2017-05-29T19:47:05.754Z,124
2017-05-29T19:47:46.245Z,116
2017-05-29T19:48:26.739Z,112
2017-05-29T19:49:07.230Z,108
2017-05-29T19:49:47.736Z,104
2017-05-29T19:50:28.234Z,100
2017-05-29T19:51:08.726Z,96
2017-05-29T19:51:49.305Z,88
2017-05-29T19:52:29.811Z,88
2017-05-29T19:53:10.305Z,80
2017-05-29T19:53:50.786Z,76
2017-05-29T19:54:31.294Z,72
2017-05-29T19:55:11.763Z,72
2017-05-29T19:55:52.269Z,64
2017-05-29T19:56:32.759Z,60
2017-05-29T19:57:13.278Z,60
2017-05-29T19:57:53.754Z,52
2017-05-29T19:58:34.241Z,48
2017-05-29T19:59:14.794Z,48
2017-05-29T19:59:55.275Z,44
2017-05-29T20:00:35.700Z,40
2017-05-29T20:01:16.213Z,36
2017-05-29T20:01:56.708Z,36
2017-05-29T20:02:37.223Z,32
2017-05-29T20:03:17.713Z,32
2017-05-29T20:03:58.179Z,28
2017-05-29T20:04:38.661Z,24
2017-05-29T20:05:19.185Z,24
2017-05-29T20:05:59.687Z,20
2017-05-29T20:06:40.187Z,20
2017-05-29T20:07:20.662Z,20
2017-05-29T20:08:01.176Z,20
2017-05-29T20:08:41.673Z,20
2017-05-29T20:09:22.167Z,16
2017-05-29T20:10:02.670Z,16
2017-05-29T20:10:43.161Z,16
2017-05-29T20:11:23.638Z,12
2017-05-29T20:12:04.155Z,12
2017-05-29T20:12:44.646Z,12
2017-05-29T20:13:25.152Z,8
2017-05-29T20:14:05.624Z,8
2017-05-29T20:14:46.119Z,12
2017-05-29T20:15:26.611Z,8
2017-05-29T20:16:07.101Z,8
2017-05-29T20:16:47.618Z,8
2017-05-29T20:17:28.084Z,8
2017-05-29T20:18:08.561Z,8
2017-05-29T20:18:49.078Z,8
2017-05-29T20:19:29.581Z,8
2017-05-29T20:20:10.050Z,4
2017-05-29T20:20:50.556Z,8
2017-05-29T20:21:31.051Z,8
2017-05-29T20:22:11.530Z,4
2017-05-29T20:22:52.072Z,4
2017-05-29T20:23:32.551Z,4
2017-05-29T20:24:13.070Z,4
2017-05-29T20:24:53.589Z,4
2017-05-29T20:25:34.084Z,0
2017-05-29T20:26:14.584Z,4
2017-05-29T20:26:55.089Z,4
2017-05-29T20:27:35.542Z,4
2017-05-29T20:28:16.045Z,4
2017-05-29T20:28:56.508Z,4
2017-05-29T20:29:37.037Z,4
2017-05-29T20:30:17.503Z,4
2017-05-29T20:30:58.017Z,4
2017-05-29T20:31:38.499Z,0
2017-05-29T20:32:18.980Z,0
2017-05-29T20:32:59.489Z,0
2017-05-29T20:33:39.980Z,0
2017-05-29T20:34:20.488Z,0
2017-05-29T20:35:00.963Z,0
2017-05-29T20:35:41.459Z,0
2017-05-29T20:36:21.951Z,0
2017-05-29T20:37:02.441Z,0
2017-05-29T20:37:42.932Z,0
2017-05-29T20:38:23.448Z,0
2017-05-29T20:39:03.935Z,0
2017-05-29T20:39:44.400Z,0
2017-05-29T20:40:24.896Z,0
2017-05-29T20:41:05.401Z,0
2017-05-29T20:41:45.943Z,0
2017-05-29T20:42:26.429Z,0
2017-05-29T20:43:06.933Z,0
2017-05-29T20:43:47.413Z,0
2017-05-29T20:44:27.885Z,0
2017-05-29T20:45:08.385Z,0
2017-05-29T20:45:48.896Z,0
2017-05-29T20:46:29.411Z,0
2017-05-29T20:47:09.904Z,0
2017-05-29T20:47:50.393Z,0
2017-05-29T20:48:30.913Z,0
2017-05-29T20:49:11.421Z,0
2017-05-29T20:49:51.920Z,0
2017-05-29T20:50:32.397Z,0
2017-05-29T20:51:12.873Z,0
2017-05-29T20:51:53.384Z,0
2017-05-29T20:52:33.875Z,0
2017-05-29T20:53:14.398Z,0
2017-05-29T20:53:54.840Z,0
2017-05-29T20:54:35.357Z,0
2017-05-29T20:55:15.835Z,0
2017-05-29T20:55:56.343Z,0
2017-05-29T20:56:36.866Z,0
2017-05-29T20:57:17.285Z,0
2017-05-29T20:57:57.798Z,0
2017-05-29T20:58:38.273Z,0
2017-05-29T20:59:18.756Z,0
2017-05-29T20:59:59.244Z,0
2017-05-29T21:00:41.300Z,0
2017-05-29T21:01:21.796Z,0
2017-05-29T21:02:02.273Z,0
2017-05-29T21:02:42.765Z,0
2017-05-29T21:03:23.271Z,0
2017-05-29T21:04:03.753Z,0
2017-05-29T21:04:44.230Z,0
2017-05-29T21:05:24.731Z,0
2017-05-29T21:06:05.260Z,0
2017-05-29T21:06:45.709Z,0
2017-05-29T21:07:26.179Z,0
2017-05-29T21:08:06.696Z,0
2017-05-29T21:08:47.184Z,0
2017-05-29T21:09:27.699Z,0
2017-05-29T21:10:08.208Z,0
2017-05-29T21:10:48.701Z,0
2017-05-29T21:11:29.181Z,0
2017-05-29T21:12:09.679Z,0
2017-05-29T21:12:50.186Z,0
2017-05-29T21:13:30.676Z,0
2017-05-29T21:14:11.175Z,0
2017-05-29T21:14:51.698Z,0
2017-05-29T21:15:32.154Z,0
2017-05-29T21:16:12.667Z,0
2017-05-29T21:16:53.138Z,0
2017-05-29T21:17:33.656Z,0
2017-05-29T21:18:14.159Z,0
2017-05-29T21:18:54.673Z,0
2017-05-29T21:19:35.144Z,0
2017-05-29T21:20:15.650Z,0
2017-05-29T21:20:56.148Z,0
2017-05-29T21:21:36.666Z,0
2017-05-29T21:22:17.134Z,0
2017-05-29T21:22:57.630Z,0
2017-05-29T21:23:38.101Z,0
2017-05-29T21:24:18.600Z,0
2017-05-29T21:24:59.122Z,0
2017-05-29T21:25:39.604Z,0
2017-05-29T21:26:20.115Z,0
2017-05-29T21:27:00.595Z,0
2017-05-29T21:27:41.100Z,0
2017-05-29T21:28:21.567Z,0
2017-05-29T21:29:02.053Z,0
2017-05-29T21:29:42.590Z,0
2017-05-29T21:30:23.075Z,0
2017-05-29T21:31:03.562Z,0
2017-05-29T21:31:44.085Z,0
2017-05-29T21:34:02.367Z,0
2017-05-29T21:34:42.913Z,0
2017-05-29T21:35:23.394Z,0
2017-05-29T21:36:03.879Z,0
2017-05-29T21:36:44.358Z,0
2017-05-29T21:37:24.862Z,0
2017-05-29T21:38:05.339Z,0
2017-05-29T21:38:45.825Z,0
2017-05-29T21:39:26.317Z,0
2017-05-29T21:40:06.792Z,0
2017-05-29T21:40:47.280Z,0
2017-05-29T21:41:27.800Z,0
2017-05-29T21:42:08.265Z,0
2017-05-29T21:42:48.769Z,0
2017-05-29T21:43:29.236Z,0
2017-05-29T21:44:09.730Z,0
2017-05-29T21:44:50.227Z,0
2017-05-29T21:45:30.705Z,0
2017-05-29T21:46:11.197Z,0
2017-05-29T21:46:51.679Z,0
2017-05-29T21:47:32.149Z,0
2017-05-29T21:48:12.632Z,0
2017-05-29T21:48:53.163Z,0
2017-05-29T21:49:33.605Z,0
2017-05-29T21:50:14.127Z,0
2017-05-29T21:50:54.606Z,0
2017-05-29T21:51:35.102Z,0
2017-05-29T21:52:15.604Z,0
2017-05-29T21:52:56.082Z,0
2017-05-29T21:53:36.553Z,0
2017-05-29T21:54:17.023Z,0
2017-05-29T21:54:57.490Z,0
2017-05-29T21:55:38.010Z,0
2017-05-29T21:56:18.482Z,0
2017-05-29T21:56:58.977Z,0
2017-05-29T21:57:39.469Z,0
2017-05-29T21:58:19.935Z,0
2017-05-29T21:59:00.438Z,0
2017-05-29T21:59:40.921Z,0
2017-05-29T22:00:21.414Z,0
2017-05-29T22:01:01.922Z,0
2017-05-29T22:01:42.442Z,0
2017-05-29T22:02:22.927Z,0
2017-05-29T22:03:03.445Z,0
2017-05-29T22:03:43.912Z,0
2017-05-29T22:04:24.418Z,0
2017-05-29T22:05:04.925Z,0
2017-05-29T22:05:45.408Z,0
2017-05-29T22:06:25.907Z,0
2017-05-29T22:07:06.377Z,0
2017-05-29T22:07:46.894Z,0
2017-05-29T22:08:27.422Z,0
2017-05-29T22:09:07.908Z,0
2017-05-29T22:09:48.475Z,0
2017-05-29T22:10:28.946Z,0
2017-05-29T22:11:09.432Z,0
2017-05-29T22:11:49.928Z,0
2017-05-29T22:12:30.435Z,0
2017-05-29T22:13:10.903Z,0
2017-05-29T22:13:51.400Z,0
2017-05-29T22:14:31.887Z,0
2017-05-29T22:15:12.416Z,0
2017-05-29T22:15:52.908Z,0
2017-05-29T22:16:33.387Z,0
2017-05-29T22:17:13.891Z,0
2017-05-29T22:17:54.361Z,0
2017-05-29T22:18:34.852Z,0
2017-05-29T22:19:15.338Z,0
2017-05-29T22:19:55.872Z,0
2017-05-29T22:20:36.331Z,0
2017-05-29T22:21:16.812Z,0
2017-05-29T22:21:57.342Z,0
2017-05-29T22:22:37.867Z,0
2017-05-29T22:23:18.322Z,0
2017-05-29T22:23:58.825Z,0
2017-05-29T22:24:39.302Z,0
2017-05-29T22:25:19.793Z,0
2017-05-29T22:26:00.291Z,0
2017-05-29T22:26:40.794Z,0
2017-05-29T22:27:21.283Z,0
2017-05-29T22:28:01.777Z,0
2017-05-29T22:28:42.311Z,0
2017-05-29T22:29:22.781Z,0
2017-05-29T22:30:03.255Z,0
2017-05-29T22:30:43.771Z,0
2017-05-29T22:31:24.264Z,0
2017-05-29T22:32:04.745Z,0
2017-05-29T22:32:45.235Z,0
2017-05-29T22:33:25.712Z,0
2017-05-29T22:34:06.212Z,0
2017-05-29T22:34:46.688Z,0
2017-05-29T22:35:27.176Z,0
2017-05-29T22:36:07.647Z,0
2017-05-29T22:36:48.165Z,0
2017-05-29T22:37:28.631Z,0
2017-05-29T22:38:09.121Z,0
2017-05-29T22:38:49.598Z,0
2017-05-29T22:39:30.103Z,0
2017-05-29T22:40:10.571Z,0
2017-05-29T22:40:51.068Z,0
2017-05-29T22:41:31.547Z,0
2017-05-29T22:42:12.013Z,0
2017-05-29T22:42:52.483Z,0
2017-05-29T22:43:32.979Z,0
2017-05-29T22:44:13.477Z,0
2017-05-29T22:44:53.946Z,0
2017-05-29T22:45:34.461Z,0
2017-05-29T22:46:14.945Z,0
2017-05-29T22:46:55.439Z,0
2017-05-29T22:47:35.896Z,0
2017-05-29T22:48:16.390Z,0
2017-05-29T22:48:56.881Z,0
2017-05-29T22:49:37.331Z,0
2017-05-29T22:50:17.814Z,0
2017-05-29T22:50:58.384Z,0
2017-05-29T22:51:38.896Z,0
2017-05-29T22:52:19.368Z,0
2017-05-29T22:52:59.866Z,0
2017-05-29T22:53:40.349Z,0
2017-05-29T22:54:20.843Z,0
2017-05-29T22:55:01.342Z,0
2017-05-29T22:55:41.838Z,0
2017-05-29T22:56:22.337Z,0
2017-05-29T22:57:02.817Z,0
2017-05-29T22:57:43.415Z,0
2017-05-29T22:58:23.917Z,0
2017-05-29T22:59:04.416Z,0
2017-05-29T22:59:44.926Z,0
2017-05-29T23:00:25.438Z,0
2017-05-29T23:01:05.925Z,0
2017-05-29T23:01:46.424Z,0
2017-05-29T23:02:26.923Z,0
2017-05-29T23:03:07.386Z,0
2017-05-29T23:03:47.897Z,0
2017-05-29T23:04:28.363Z,0
2017-05-29T23:05:08.850Z,0
2017-05-29T23:05:49.355Z,0
2017-05-29T23:06:29.863Z,0
2017-05-29T23:07:10.333Z,0
2017-05-29T23:07:50.804Z,0
2017-05-29T23:08:31.294Z,0
2017-05-29T23:09:11.800Z,0
2017-05-29T23:09:52.309Z,0
2017-05-29T23:10:32.810Z,0
2017-05-29T23:11:13.282Z,0
2017-05-29T23:11:53.779Z,0
2017-05-29T23:12:34.261Z,0
2017-05-29T23:13:14.770Z,0
2017-05-29T23:13:55.238Z,0
2017-05-29T23:14:35.753Z,0
2017-05-29T23:15:16.243Z,0
2017-05-29T23:15:56.767Z,0
2017-05-29T23:16:37.236Z,0
2017-05-29T23:17:17.745Z,0
2017-05-29T23:17:58.232Z,0
2017-05-29T23:18:38.727Z,0